General Aviation Weather

Text Reports

Enter one or more of the following location identifiers separated by a space:

Zip Code, Four-Character ICAO or Three-Character IATA airport codes.

METAR - Aviation Routine Weather Report
KRXE - Rexburg, Idaho
Updated at 11:53 PM GMT on March 06, 2015 (4:53 PM MST):
METAR KRXE 062353Z AUTO 21007KT 10SM CLR 11/M07 A3034 RMK AO2 SLP291 T01111072 10111 20039 56014
TAF - Terminal Area Forecast
KRXE - Rexburg, Idaho
Updated at 11:53 PM GMT on March 06, 2015 (4:53 PM MST):
No TAF is currently available for this location.
Decoded:
No decoded TAF is available.
PIREP - Pilot Weather Report
KRXE - Rexburg, Idaho
Updated at 11:53 PM GMT on March 06, 2015 (4:53 PM MST):
No PIREP is currently available for this location.
AIRMET - Airmens Meteorological Information
KRXE - Rexburg, Idaho
Updated at 11:53 PM GMT on March 06, 2015 (4:53 PM MST):
No AIRMET is currently available for this location.
SIGMET - Significant Meteorological Information
KRXE - Rexburg, Idaho
Updated at 11:53 PM GMT on March 06, 2015 (4:53 PM MST):
No SIGMET is currently available for this location.
NOTAM - Notice to Airmen
KRXE - Rexburg, Idaho
Updated at 11:53 PM GMT on March 06, 2015 (4:53 PM MST):
No NOTAM is currently available for this location.
Forecast Area
KRXE - Rexburg, Idaho
Updated at 11:53 PM GMT on March 06, 2015 (4:53 PM MST):
No NOTAM is currently available for this location.
Aviation Weather Maps